sensor_id;sensor_type;location;lat;lon;timestamp;pressure;altitude;pressure_sealevel;temperature;humidity
12879;BME280;20617;49.476;10.986;2024-03-02T00:00:33;97202.69;;;9.27;100.00
12879;BME280;20617;49.476;10.986;2024-03-02T00:02:39;97199.94;;;9.30;100.00
12879;BME280;20617;49.476;10.986;2024-03-02T00:04:40;97203.56;;;9.28;100.00
12879;BME280;20617;49.476;10.986;2024-03-02T00:06:47;97194.69;;;9.32;100.00
12879;BME280;20617;49.476;10.986;2024-03-02T00:08:48;97196.44;;;9.32;100.00
12879;BME280;20617;49.476;10.986;2024-03-02T00:10:57;97196.19;;;9.36;100.00
12879;BME280;20617;49.476;10.986;2024-03-02T00:13:00;97193.56;;;9.36;100.00
12879;BME280;20617;49.476;10.986;2024-03-02T00:15:01;97195.69;;;9.29;100.00
12879;BME280;20617;49.476;10.986;2024-03-02T00:17:04;97202.63;;;9.29;100.00
12879;BME280;20617;49.476;10.986;2024-03-02T00:19:06;97201.69;;;9.30;100.00
12879;BME280;20617;49.476;10.986;2024-03-02T00:21:07;97201.97;;;9.25;100.00
12879;BME280;20617;49.476;10.986;2024-03-02T00:23:16;97190.59;;;9.28;100.00
12879;BME280;20617;49.476;10.986;2024-03-02T00:25:18;97198.38;;;9.28;100.00
12879;BME280;20617;49.476;10.986;2024-03-02T00:27:21;97197.34;;;9.30;100.00
12879;BME280;20617;49.476;10.986;2024-03-02T00:29:22;97198.09;;;9.33;100.00
12879;BME280;20617;49.476;10.986;2024-03-02T00:31:23;97191.25;;;9.32;100.00
12879;BME280;20617;49.476;10.986;2024-03-02T00:33:26;97199.69;;;9.35;100.00
12879;BME280;20617;49.476;10.986;2024-03-02T00:35:27;97202.22;;;9.37;100.00
12879;BME280;20617;49.476;10.986;2024-03-02T00:37:29;97197.78;;;9.39;100.00
12879;BME280;20617;49.476;10.986;2024-03-02T00:39:32;97200.47;;;9.37;100.00
12879;BME280;20617;49.476;10.986;2024-03-02T00:41:35;97191.16;;;9.33;100.00
12879;BME280;20617;49.476;10.986;2024-03-02T00:43:42;97199.22;;;9.28;100.00
12879;BME280;20617;49.476;10.986;2024-03-02T00:45:43;97203.56;;;9.28;100.00
12879;BME280;20617;49.476;10.986;2024-03-02T00:47:44;97201.19;;;9.23;100.00
12879;BME280;20617;49.476;10.986;2024-03-02T00:49:46;97208.00;;;9.26;100.00
12879;BME280;20617;49.476;10.986;2024-03-02T00:51:51;97204.81;;;9.21;100.00
12879;BME280;20617;49.476;10.986;2024-03-02T00:53:52;97208.56;;;9.15;100.00
12879;BME280;20617;49.476;10.986;2024-03-02T00:55:58;97208.66;;;9.14;100.00
12879;BME280;20617;49.476;10.986;2024-03-02T00:57:59;97216.44;;;9.14;100.00
12879;BME280;20617;49.476;10.986;2024-03-02T01:00:02;97211.25;;;9.14;100.00
12879;BME280;20617;49.476;10.986;2024-03-02T01:02:04;97207.88;;;9.12;100.00
12879;BME280;20617;49.476;10.986;2024-03-02T01:04:04;97211.41;;;9.11;100.00
12879;BME280;20617;49.476;10.986;2024-03-02T01:06:05;97207.97;;;9.10;100.00
12879;BME280;20617;49.476;10.986;2024-03-02T01:08:06;97207.97;;;9.10;100.00
12879;BME280;20617;49.476;10.986;2024-03-02T01:10:07;97215.75;;;9.10;100.00
12879;BME280;20617;49.476;10.986;2024-03-02T01:12:13;97213.09;;;9.12;100.00
12879;BME280;20617;49.476;10.986;2024-03-02T01:14:14;97219.94;;;9.13;100.00
12879;BME280;20617;49.476;10.986;2024-03-02T01:16:17;97219.88;;;9.14;100.00
12879;BME280;20617;49.476;10.986;2024-03-02T01:18:18;97220.19;;;9.08;100.00
12879;BME280;20617;49.476;10.986;2024-03-02T01:20:21;97205.34;;;9.10;100.00
12879;BME280;20617;49.476;10.986;2024-03-02T01:22:23;97214.00;;;9.11;100.00
12879;BME280;20617;49.476;10.986;2024-03-02T01:24:26;97208.88;;;9.09;100.00
12879;BME280;20617;49.476;10.986;2024-03-02T01:26:27;97208.97;;;9.07;100.00
12879;BME280;20617;49.476;10.986;2024-03-02T01:28:31;97205.78;;;9.02;100.00
12879;BME280;20617;49.476;10.986;2024-03-02T01:30:31;97204.09;;;9.01;100.00
12879;BME280;20617;49.476;10.986;2024-03-02T01:32:32;97201.59;;;9.00;100.00
12879;BME280;20617;49.476;10.986;2024-03-02T01:34:33;97201.75;;;8.97;100.00
12879;BME280;20617;49.476;10.986;2024-03-02T01:36:33;97200.97;;;8.95;100.00
12879;BME280;20617;49.476;10.986;2024-03-02T01:38:34;97207.00;;;8.95;100.00
12879;BME280;20617;49.476;10.986;2024-03-02T01:40:35;97210.38;;;8.97;100.00
12879;BME280;20617;49.476;10.986;2024-03-02T01:42:37;97207.78;;;8.97;100.00
12879;BME280;20617;49.476;10.986;2024-03-02T01:44:40;97212.13;;;8.97;100.00
12879;BME280;20617;49.476;10.986;2024-03-02T01:46:41;97207.84;;;8.96;100.00
12879;BME280;20617;49.476;10.986;2024-03-02T01:48:41;97210.44;;;8.96;100.00
12879;BME280;20617;49.476;10.986;2024-03-02T01:50:42;97213.97;;;8.95;100.00
12879;BME280;20617;49.476;10.986;2024-03-02T01:52:43;97209.59;;;8.95;100.00
12879;BME280;20617;49.476;10.986;2024-03-02T01:54:44;97216.56;;;8.95;100.00
12879;BME280;20617;49.476;10.986;2024-03-02T01:56:44;97215.72;;;8.94;100.00
12879;BME280;20617;49.476;10.986;2024-03-02T01:58:47;97220.00;;;8.95;100.00
12879;BME280;20617;49.476;10.986;2024-03-02T02:00:51;97214.72;;;8.97;100.00
12879;BME280;20617;49.476;10.986;2024-03-02T02:02:51;97220.16;;;8.92;100.00
12879;BME280;20617;49.476;10.986;2024-03-02T02:04:54;97221.91;;;8.92;100.00
12879;BME280;20617;49.476;10.986;2024-03-02T02:06:54;97222.75;;;8.92;100.00
12879;BME280;20617;49.476;10.986;2024-03-02T02:08:55;97216.72;;;8.92;100.00
12879;BME280;20617;49.476;10.986;2024-03-02T02:10:56;97214.06;;;8.93;100.00
12879;BME280;20617;49.476;10.986;2024-03-02T02:12:57;97208.09;;;8.91;100.00
12879;BME280;20617;49.476;10.986;2024-03-02T02:14:58;97214.97;;;8.92;100.00
12879;BME280;20617;49.476;10.986;2024-03-02T02:17:02;97213.13;;;8.94;100.00
12879;BME280;20617;49.476;10.986;2024-03-02T02:19:03;97216.56;;;8.95;100.00
12879;BME280;20617;49.476;10.986;2024-03-02T02:21:03;97215.72;;;8.94;100.00
12879;BME280;20617;49.476;10.986;2024-03-02T02:23:07;97217.31;;;8.97;100.00
12879;BME280;20617;49.476;10.986;2024-03-02T02:25:09;97218.22;;;8.96;100.00
12879;BME280;20617;49.476;10.986;2024-03-02T02:27:09;97218.09;;;8.99;100.00
12879;BME280;20617;49.476;10.986;2024-03-02T02:29:10;97212.81;;;9.00;100.00
12879;BME280;20617;49.476;10.986;2024-03-02T02:31:13;97216.22;;;9.01;100.00
12879;BME280;20617;49.476;10.986;2024-03-02T02:33:14;97210.38;;;8.97;100.00
12879;BME280;20617;49.476;10.986;2024-03-02T02:35:15;97214.63;;;8.98;100.00
12879;BME280;20617;49.476;10.986;2024-03-02T02:37:16;97217.31;;;8.97;100.00
12879;BME280;20617;49.476;10.986;2024-03-02T02:39:21;97219.81;;;8.98;100.00
12879;BME280;20617;49.476;10.986;2024-03-02T02:41:22;97219.81;;;8.98;100.00
12879;BME280;20617;49.476;10.986;2024-03-02T02:43:23;97220.59;;;9.00;100.00
12879;BME280;20617;49.476;10.986;2024-03-02T02:45:24;97218.75;;;9.02;100.00
12879;BME280;20617;49.476;10.986;2024-03-02T02:47:25;97217.16;;;9.00;100.00
12879;BME280;20617;49.476;10.986;2024-03-02T02:49:28;97218.09;;;8.99;100.00
12879;BME280;20617;49.476;10.986;2024-03-02T02:51:29;97220.53;;;9.02;100.00
12879;BME280;20617;49.476;10.986;2024-03-02T02:53:30;97212.91;;;8.99;100.00
12879;BME280;20617;49.476;10.986;2024-03-02T02:55:33;97212.97;;;8.97;100.00
12879;BME280;20617;49.476;10.986;2024-03-02T02:57:34;97211.38;;;8.95;100.00
12879;BME280;20617;49.476;10.986;2024-03-02T02:59:35;97211.47;;;8.93;100.00
12879;BME280;20617;49.476;10.986;2024-03-02T03:01:36;97213.03;;;8.96;100.00
12879;BME280;20617;49.476;10.986;2024-03-02T03:03:37;97211.38;;;8.95;100.00
12879;BME280;20617;49.476;10.986;2024-03-02T03:05:37;97204.34;;;8.97;100.00
12879;BME280;20617;49.476;10.986;2024-03-02T03:07:39;97210.31;;;8.99;100.00
12879;BME280;20617;49.476;10.986;2024-03-02T03:09:40;97205.94;;;8.99;100.00
12879;BME280;20617;49.476;10.986;2024-03-02T03:11:43;97205.69;;;9.04;100.00
12879;BME280;20617;49.476;10.986;2024-03-02T03:13:44;97207.38;;;9.05;100.00
12879;BME280;20617;49.476;10.986;2024-03-02T03:15:45;97212.47;;;9.06;100.00
12879;BME280;20617;49.476;10.986;2024-03-02T03:17:46;97204.84;;;9.03;100.00
12879;BME280;20617;49.476;10.986;2024-03-02T03:19:46;97216.00;;;9.05;100.00
12879;BME280;20617;49.476;10.986;2024-03-02T03:21:47;97211.13;;;8.99;100.00
12879;BME280;20617;49.476;10.986;2024-03-02T03:23:48;97209.38;;;9.00;100.00
12879;BME280;20617;49.476;10.986;2024-03-02T03:25:48;97214.63;;;8.98;100.00
12879;BME280;20617;49.476;10.986;2024-03-02T03:27:52;97212.63;;;9.03;100.00
12879;BME280;20617;49.476;10.986;2024-03-02T03:29:53;97208.44;;;9.01;100.00
12879;BME280;20617;49.476;10.986;2024-03-02T03:31:53;97210.44;;;8.96;100.00
12879;BME280;20617;49.476;10.986;2024-03-02T03:33:54;97213.13;;;8.94;100.00
12879;BME280;20617;49.476;10.986;2024-03-02T03:35:55;97208.72;;;8.96;100.00
12879;BME280;20617;49.476;10.986;2024-03-02T03:37:55;97209.44;;;8.98;100.00
12879;BME280;20617;49.476;10.986;2024-03-02T03:39:56;97211.97;;;9.00;100.00
12879;BME280;20617;49.476;10.986;2024-03-02T03:41:57;97210.38;;;8.97;100.00
12879;BME280;20617;49.476;10.986;2024-03-02T03:44:00;97214.78;;;8.95;100.00
12879;BME280;20617;49.476;10.986;2024-03-02T03:46:01;97213.97;;;8.95;100.00
12879;BME280;20617;49.476;10.986;2024-03-02T03:48:02;97221.06;;;8.91;100.00
12879;BME280;20617;49.476;10.986;2024-03-02T03:50:03;97217.88;;;8.86;100.00
12879;BME280;20617;49.476;10.986;2024-03-02T03:52:04;97216.22;;;8.85;100.00
12879;BME280;20617;49.476;10.986;2024-03-02T03:54:05;97219.03;;;8.80;100.00
12879;BME280;20617;49.476;10.986;2024-03-02T03:56:07;97223.59;;;8.75;100.00
12879;BME280;20617;49.476;10.986;2024-03-02T03:58:08;97220.44;;;8.70;100.00
12879;BME280;20617;49.476;10.986;2024-03-02T04:00:14;97211.72;;;8.71;100.00
12879;BME280;20617;49.476;10.986;2024-03-02T04:02:14;97208.63;;;8.65;100.00
12879;BME280;20617;49.476;10.986;2024-03-02T04:04:15;97204.25;;;8.65;100.00
12879;BME280;20617;49.476;10.986;2024-03-02T04:06:17;97201.81;;;8.62;100.00
12879;BME280;20617;49.476;10.986;2024-03-02T04:08:19;97207.22;;;8.57;100.00
12879;BME280;20617;49.476;10.986;2024-03-02T04:10:20;97216.16;;;8.52;100.00
12879;BME280;20617;49.476;10.986;2024-03-02T04:12:21;97211.91;;;8.51;100.00
12879;BME280;20617;49.476;10.986;2024-03-02T04:14:23;97223.19;;;8.50;100.00
12879;BME280;20617;49.476;10.986;2024-03-02T04:16:26;97226.09;;;8.44;100.00
12879;BME280;20617;49.476;10.986;2024-03-02T04:18:27;97224.00;;;8.33;100.00
12879;BME280;20617;49.476;10.986;2024-03-02T04:20:28;97218.81;;;8.33;100.00
12879;BME280;20617;49.476;10.986;2024-03-02T04:22:28;97224.16;;;8.30;100.00
12879;BME280;20617;49.476;10.986;2024-03-02T04:24:29;97227.66;;;8.29;100.00
12879;BME280;20617;49.476;10.986;2024-03-02T04:26:30;97226.97;;;8.25;100.00
12879;BME280;20617;49.476;10.986;2024-03-02T04:28:31;97226.97;;;8.25;100.00
12879;BME280;20617;49.476;10.986;2024-03-02T04:30:32;97227.94;;;8.23;100.00
12879;BME280;20617;49.476;10.986;2024-03-02T04:32:37;97229.09;;;8.17;100.00
12879;BME280;20617;49.476;10.986;2024-03-02T04:34:38;97236.88;;;8.17;100.00
12879;BME280;20617;49.476;10.986;2024-03-02T04:36:39;97247.53;;;8.11;100.00
12879;BME280;20617;49.476;10.986;2024-03-02T04:38:40;97237.09;;;8.12;100.00
12879;BME280;20617;49.476;10.986;2024-03-02T04:40:40;97238.00;;;8.11;100.00
12879;BME280;20617;49.476;10.986;2024-03-02T04:42:41;97241.50;;;8.10;100.00
12879;BME280;20617;49.476;10.986;2024-03-02T04:44:42;97238.16;;;8.08;100.00
12879;BME280;20617;49.476;10.986;2024-03-02T04:46:42;97245.25;;;8.05;100.00
12879;BME280;20617;49.476;10.986;2024-03-02T04:48:46;97241.88;;;8.03;100.00
12879;BME280;20617;49.476;10.986;2024-03-02T04:50:47;97242.81;;;8.02;100.00
12879;BME280;20617;49.476;10.986;2024-03-02T04:52:48;97242.81;;;8.02;100.00
12879;BME280;20617;49.476;10.986;2024-03-02T04:54:48;97240.34;;;7.99;100.00
12879;BME280;20617;49.476;10.986;2024-03-02T04:56:50;97244.47;;;8.03;100.00
12879;BME280;20617;49.476;10.986;2024-03-02T04:58:50;97247.06;;;8.03;100.00
12879;BME280;20617;49.476;10.986;2024-03-02T05:00:51;97245.34;;;8.03;100.00
12879;BME280;20617;49.476;10.986;2024-03-02T05:02:52;97244.63;;;8.00;100.00
12879;BME280;20617;49.476;10.986;2024-03-02T05:04:56;97251.34;;;8.04;100.00
12879;BME280;20617;49.476;10.986;2024-03-02T05:06:56;97249.59;;;8.04;100.00
12879;BME280;20617;49.476;10.986;2024-03-02T05:08:59;97244.41;;;8.04;100.00
12879;BME280;20617;49.476;10.986;2024-03-02T05:11:00;97250.53;;;8.03;100.00
12879;BME280;20617;49.476;10.986;2024-03-02T05:13:02;97255.75;;;8.02;100.00
12879;BME280;20617;49.476;10.986;2024-03-02T05:15:05;97254.00;;;8.02;100.00
12879;BME280;20617;49.476;10.986;2024-03-02T05:17:06;97256.69;;;8.01;100.00
12879;BME280;20617;49.476;10.986;2024-03-02T05:19:09;97261.09;;;7.99;100.00
12879;BME280;20617;49.476;10.986;2024-03-02T05:21:12;97253.25;;;8.00;100.00
12879;BME280;20617;49.476;10.986;2024-03-02T05:23:13;97258.66;;;7.96;100.00
12879;BME280;20617;49.476;10.986;2024-03-02T05:25:18;97254.38;;;7.94;100.00
12879;BME280;20617;49.476;10.986;2024-03-02T05:27:21;97256.84;;;7.98;100.00
12879;BME280;20617;49.476;10.986;2024-03-02T05:29:22;97256.13;;;7.94;100.00
12879;BME280;20617;49.476;10.986;2024-03-02T05:31:23;97255.44;;;7.90;100.00
12879;BME280;20617;49.476;10.986;2024-03-02T05:33:26;97258.84;;;7.91;100.00
12879;BME280;20617;49.476;10.986;2024-03-02T05:35:27;97262.22;;;7.93;100.00
12879;BME280;20617;49.476;10.986;2024-03-02T05:37:30;97262.38;;;7.90;100.00
12879;BME280;20617;49.476;10.986;2024-03-02T05:39:31;97259.00;;;7.88;100.00
12879;BME280;20617;49.476;10.986;2024-03-02T05:41:32;97262.50;;;7.87;100.00
12879;BME280;20617;49.476;10.986;2024-03-02T05:43:32;97265.94;;;7.87;100.00
12879;BME280;20617;49.476;10.986;2024-03-02T05:45:33;97266.16;;;7.83;100.00
12879;BME280;20617;49.476;10.986;2024-03-02T05:47:34;97266.22;;;7.81;100.00
12879;BME280;20617;49.476;10.986;2024-03-02T05:49:37;97274.09;;;7.80;100.00
12879;BME280;20617;49.476;10.986;2024-03-02T05:51:38;97267.97;;;7.81;100.00
12879;BME280;20617;49.476;10.986;2024-03-02T05:53:42;97270.50;;;7.82;100.00
12879;BME280;20617;49.476;10.986;2024-03-02T05:55:42;97273.22;;;7.79;100.00
12879;BME280;20617;49.476;10.986;2024-03-02T05:57:43;97274.16;;;7.78;100.00
12879;BME280;20617;49.476;10.986;2024-03-02T05:59:44;97270.91;;;7.73;100.00
12879;BME280;20617;49.476;10.986;2024-03-02T06:01:46;97274.72;;;7.66;100.00
12879;BME280;20617;49.476;10.986;2024-03-02T06:03:47;97272.28;;;7.63;100.00
12879;BME280;20617;49.476;10.986;2024-03-02T06:05:48;97279.25;;;7.61;100.00
12879;BME280;20617;49.476;10.986;2024-03-02T06:07:49;97277.78;;;7.55;100.00
12879;BME280;20617;49.476;10.986;2024-03-02T06:09:52;97283.94;;;7.53;100.00
12879;BME280;20617;49.476;10.986;2024-03-02T06:11:52;97279.69;;;7.52;100.00
12879;BME280;20617;49.476;10.986;2024-03-02T06:13:53;97284.22;;;7.46;100.00
12879;BME280;20617;49.476;10.986;2024-03-02T06:15:54;97280.81;;;7.46;100.00
12879;BME280;20617;49.476;10.986;2024-03-02T06:17:57;97279.97;;;7.45;100.00
12879;BME280;20617;49.476;10.986;2024-03-02T06:19:58;97277.28;;;7.47;100.00
12879;BME280;20617;49.476;10.986;2024-03-02T06:21:59;97290.19;;;7.48;100.00
12879;BME280;20617;49.476;10.986;2024-03-02T06:24:00;97287.03;;;7.42;100.00
12879;BME280;20617;49.476;10.986;2024-03-02T06:26:04;97283.19;;;7.51;100.00
12879;BME280;20617;49.476;10.986;2024-03-02T06:28:04;97289.28;;;7.49;100.00
12879;BME280;20617;49.476;10.986;2024-03-02T06:30:06;97286.53;;;7.53;100.00
12879;BME280;20617;49.476;10.986;2024-03-02T06:32:07;97285.66;;;7.54;100.00
12879;BME280;20617;49.476;10.986;2024-03-02T06:34:07;97284.72;;;7.55;100.00
12879;BME280;20617;49.476;10.986;2024-03-02T06:36:08;97283.06;;;7.54;100.00
12879;BME280;20617;49.476;10.986;2024-03-02T06:38:10;97288.44;;;7.49;100.00
12879;BME280;20617;49.476;10.986;2024-03-02T06:40:12;97286.91;;;7.45;100.00
12879;BME280;20617;49.476;10.986;2024-03-02T06:42:16;97288.63;;;7.44;100.00
12879;BME280;20617;49.476;10.986;2024-03-02T06:44:16;97286.97;;;7.43;100.00
12879;BME280;20617;49.476;10.986;2024-03-02T06:46:17;97291.50;;;7.38;100.00
12879;BME280;20617;49.476;10.986;2024-03-02T06:48:20;97284.59;;;7.39;100.00
12879;BME280;20617;49.476;10.986;2024-03-02T06:50:21;97287.94;;;7.41;100.00
12879;BME280;20617;49.476;10.986;2024-03-02T06:52:21;97289.56;;;7.43;100.00
12879;BME280;20617;49.476;10.986;2024-03-02T06:54:23;97293.63;;;7.49;100.00
12879;BME280;20617;49.476;10.986;2024-03-02T06:56:23;97288.38;;;7.51;100.00
12879;BME280;20617;49.476;10.986;2024-03-02T06:58:27;97282.97;;;7.55;100.00
12879;BME280;20617;49.476;10.986;2024-03-02T07:00:27;97289.81;;;7.56;100.00
12879;BME280;20617;49.476;10.986;2024-03-02T07:02:28;97290.47;;;7.61;100.00
12879;BME280;20617;49.476;10.986;2024-03-02T07:04:29;97285.84;;;7.68;100.00
12879;BME280;20617;49.476;10.986;2024-03-02T07:06:29;97285.56;;;7.74;100.00
12879;BME280;20617;49.476;10.986;2024-03-02T07:08:30;97286.13;;;7.81;100.00
12879;BME280;20617;49.476;10.986;2024-03-02T07:10:31;97280.75;;;7.85;100.00
12879;BME280;20617;49.476;10.986;2024-03-02T07:12:32;97281.28;;;7.92;100.00
12879;BME280;20617;49.476;10.986;2024-03-02T07:14:35;97287.09;;;7.97;100.00
12879;BME280;20617;49.476;10.986;2024-03-02T07:16:37;97286.81;;;8.03;100.00
12879;BME280;20617;49.476;10.986;2024-03-02T07:18:38;97288.41;;;8.06;100.00
12879;BME280;20617;49.476;10.986;2024-03-02T07:20:39;97284.66;;;8.11;100.00
12879;BME280;20617;49.476;10.986;2024-03-02T07:22:39;97285.28;;;8.16;100.00
12879;BME280;20617;49.476;10.986;2024-03-02T07:24:40;97288.34;;;8.25;100.00
12879;BME280;20617;49.476;10.986;2024-03-02T07:26:42;97283.78;;;8.30;100.00
12879;BME280;20617;49.476;10.986;2024-03-02T07:28:43;97292.91;;;8.38;100.00
12879;BME280;20617;49.476;10.986;2024-03-02T07:30:46;97286.28;;;8.50;100.00
12879;BME280;20617;49.476;10.986;2024-03-02T07:32:50;97287.50;;;8.60;100.00
12879;BME280;20617;49.476;10.986;2024-03-02T07:34:50;97292.47;;;8.65;100.00
12879;BME280;20617;49.476;10.986;2024-03-02T07:36:51;97286.97;;;8.71;100.00
12879;BME280;20617;49.476;10.986;2024-03-02T07:38:52;97280.47;;;8.80;100.00
12879;BME280;20617;49.476;10.986;2024-03-02T07:40:53;97284.84;;;8.79;100.00
12879;BME280;20617;49.476;10.986;2024-03-02T07:42:54;97284.53;;;8.86;100.00
12879;BME280;20617;49.476;10.986;2024-03-02T07:44:55;97282.38;;;8.94;100.00
12879;BME280;20617;49.476;10.986;2024-03-02T07:47:00;97276.19;;;8.96;100.00
12879;BME280;20617;49.476;10.986;2024-03-02T07:49:00;97270.38;;;8.91;100.00
12879;BME280;20617;49.476;10.986;2024-03-02T07:51:01;97281.38;;;8.96;100.00
12879;BME280;20617;49.476;10.986;2024-03-02T07:53:04;97275.94;;;9.01;100.00
12879;BME280;20617;49.476;10.986;2024-03-02T07:55:05;97278.22;;;9.07;100.00
12879;BME280;20617;49.476;10.986;2024-03-02T07:57:05;97278.38;;;9.04;100.00
12879;BME280;20617;49.476;10.986;2024-03-02T07:59:09;97281.06;;;9.02;100.00
12879;BME280;20617;49.476;10.986;2024-03-02T08:01:09;97273.94;;;9.06;100.00
12879;BME280;20617;49.476;10.986;2024-03-02T08:03:13;97276.03;;;8.99;100.00
12879;BME280;20617;49.476;10.986;2024-03-02T08:05:16;97279.16;;;9.06;100.00
12879;BME280;20617;49.476;10.986;2024-03-02T08:07:16;97281.41;;;9.12;100.00
12879;BME280;20617;49.476;10.986;2024-03-02T08:09:17;97286.38;;;9.17;100.00
12879;BME280;20617;49.476;10.986;2024-03-02T08:11:18;97288.00;;;9.19;100.00
12879;BME280;20617;49.476;10.986;2024-03-02T08:13:18;97283.47;;;9.23;100.00
12879;BME280;20617;49.476;10.986;2024-03-02T08:15:19;97286.81;;;9.25;100.00
12879;BME280;20617;49.476;10.986;2024-03-02T08:17:20;97282.53;;;9.24;100.00
12879;BME280;20617;49.476;10.986;2024-03-02T08:19:23;97286.13;;;9.21;100.00
12879;BME280;20617;49.476;10.986;2024-03-02T08:21:24;97288.66;;;9.23;100.00
12879;BME280;20617;49.476;10.986;2024-03-02T08:23:27;97285.97;;;9.24;100.00
12879;BME280;20617;49.476;10.986;2024-03-02T08:25:27;97283.16;;;9.29;100.00
12879;BME280;20617;49.476;10.986;2024-03-02T08:27:28;97277.94;;;9.29;100.00
12879;BME280;20617;49.476;10.986;2024-03-02T08:29:31;97279.72;;;9.28;100.00
12879;BME280;20617;49.476;10.986;2024-03-02T08:31:34;97282.38;;;9.27;100.00
12879;BME280;20617;49.476;10.986;2024-03-02T08:33:34;97282.53;;;9.24;100.00
12879;BME280;20617;49.476;10.986;2024-03-02T08:35:38;97284.31;;;9.23;100.00
12879;BME280;20617;49.476;10.986;2024-03-02T08:37:39;97282.38;;;9.27;100.00
12879;BME280;20617;49.476;10.986;2024-03-02T08:39:40;97285.06;;;9.25;100.00
12879;BME280;20617;49.476;10.986;2024-03-02T08:41:41;97284.06;;;9.28;100.00
12879;BME280;20617;49.476;10.986;2024-03-02T08:43:42;97278.72;;;9.31;100.00
12879;BME280;20617;49.476;10.986;2024-03-02T08:45:43;97279.81;;;9.43;100.00
12879;BME280;20617;49.476;10.986;2024-03-02T08:47:46;97277.72;;;9.49;100.00
12879;BME280;20617;49.476;10.986;2024-03-02T08:49:47;97282.44;;;9.59;100.00
12879;BME280;20617;49.476;10.986;2024-03-02T08:51:50;97278.59;;;9.66;100.00
12879;BME280;20617;49.476;10.986;2024-03-02T08:53:51;97280.75;;;9.73;100.00
12879;BME280;20617;49.476;10.986;2024-03-02T08:55:52;97275.31;;;9.78;100.00
12879;BME280;20617;49.476;10.986;2024-03-02T08:57:52;97276.41;;;9.90;100.00
12879;BME280;20617;49.476;10.986;2024-03-02T08:59:53;97274.22;;;9.98;100.00
12879;BME280;20617;49.476;10.986;2024-03-02T09:01:54;97269.69;;;10.02;100.00
12879;BME280;20617;49.476;10.986;2024-03-02T09:03:55;97272.19;;;10.03;100.00
12879;BME280;20617;49.476;10.986;2024-03-02T09:05:56;97273.63;;;10.09;100.00
12879;BME280;20617;49.476;10.986;2024-03-02T09:08:00;97271.53;;;10.15;100.00
12879;BME280;20617;49.476;10.986;2024-03-02T09:10:01;97272.00;;;10.22;100.00
12879;BME280;20617;49.476;10.986;2024-03-02T09:12:03;97260.34;;;10.29;100.00
12879;BME280;20617;49.476;10.986;2024-03-02T09:14:03;97267.31;;;10.29;100.00
12879;BME280;20617;49.476;10.986;2024-03-02T09:16:06;97261.69;;;10.36;100.00
12879;BME280;20617;49.476;10.986;2024-03-02T09:18:07;97251.94;;;10.40;100.00
12879;BME280;20617;49.476;10.986;2024-03-02T09:20:09;97258.50;;;10.47;100.00
12879;BME280;20617;49.476;10.986;2024-03-02T09:22:09;97253.00;;;10.52;100.00
12879;BME280;20617;49.476;10.986;2024-03-02T09:24:13;97257.59;;;10.62;100.00
12879;BME280;20617;49.476;10.986;2024-03-02T09:26:13;97250.84;;;10.74;100.00
12879;BME280;20617;49.476;10.986;2024-03-02T09:28:15;97242.72;;;10.79;100.00
12879;BME280;20617;49.476;10.986;2024-03-02T09:30:16;97245.72;;;10.87;100.00
12879;BME280;20617;49.476;10.986;2024-03-02T09:32:17;97237.66;;;10.92;100.00
12879;BME280;20617;49.476;10.986;2024-03-02T09:34:18;97248.16;;;11.04;100.00
12879;BME280;20617;49.476;10.986;2024-03-02T09:36:18;97247.41;;;11.17;100.00
12879;BME280;20617;49.476;10.986;2024-03-02T09:38:19;97250.03;;;11.17;100.00
12879;BME280;20617;49.476;10.986;2024-03-02T09:40:24;97243.34;;;11.27;100.00
12879;BME280;20617;49.476;10.986;2024-03-02T09:42:25;97250.59;;;11.36;100.00
12879;BME280;20617;49.476;10.986;2024-03-02T09:44:26;97246.00;;;11.40;100.00
12879;BME280;20617;49.476;10.986;2024-03-02T09:46:27;97249.00;;;11.48;100.00
12879;BME280;20617;49.476;10.986;2024-03-02T09:48:27;97240.59;;;11.57;100.00
12879;BME280;20617;49.476;10.986;2024-03-02T09:50:28;97241.78;;;11.66;100.00
12879;BME280;20617;49.476;10.986;2024-03-02T09:52:30;97241.22;;;11.75;100.00
12879;BME280;20617;49.476;10.986;2024-03-02T09:54:31;97236.31;;;11.70;100.00
12879;BME280;20617;49.476;10.986;2024-03-02T09:56:34;97234.53;;;11.71;100.00
12879;BME280;20617;49.476;10.986;2024-03-02T09:58:35;97234.44;;;11.72;100.00
12879;BME280;20617;49.476;10.986;2024-03-02T10:00:36;97243.44;;;11.81;100.00
12879;BME280;20617;49.476;10.986;2024-03-02T10:02:37;97235.91;;;11.91;100.00
12879;BME280;20617;49.476;10.986;2024-03-02T10:04:37;97232.81;;;11.84;100.00
12879;BME280;20617;49.476;10.986;2024-03-02T10:06:38;97233.19;;;11.92;100.00
12879;BME280;20617;49.476;10.986;2024-03-02T10:08:43;97231.88;;;11.99;100.00
12879;BME280;20617;49.476;10.986;2024-03-02T10:10:43;97233.34;;;12.04;100.00
12879;BME280;20617;49.476;10.986;2024-03-02T10:12:47;97233.59;;;12.13;100.00
12879;BME280;20617;49.476;10.986;2024-03-02T10:14:49;97236.91;;;12.15;100.00
12879;BME280;20617;49.476;10.986;2024-03-02T10:16:50;97233.63;;;12.26;100.00
12879;BME280;20617;49.476;10.986;2024-03-02T10:18:50;97232.28;;;12.33;100.00
12879;BME280;20617;49.476;10.986;2024-03-02T10:20:51;97227.50;;;12.40;100.00
12879;BME280;20617;49.476;10.986;2024-03-02T10:22:52;97230.84;;;12.42;100.00
12879;BME280;20617;49.476;10.986;2024-03-02T10:24:53;97223.53;;;12.47;100.00
12879;BME280;20617;49.476;10.986;2024-03-02T10:26:53;97226.59;;;12.54;100.00
12879;BME280;20617;49.476;10.986;2024-03-02T10:28:57;97226.19;;;12.60;100.00
12879;BME280;20617;49.476;10.986;2024-03-02T10:30:58;97218.97;;;12.63;100.00
12879;BME280;20617;49.476;10.986;2024-03-02T10:32:59;97222.75;;;12.72;100.00